Time;durP1;ratioP1;P1;durP2;ratioP2;P2;SDS_P1;SDS_P2;PMS_P1;PMS_P2;Temp;Humidity;BMP_temperature;BMP_pressure;BME280_temperature;BME280_humidity;BME280_pressure;Samples;Min_cycle;Max_cycle;Signal;HPM_P1;HPM_P2
2021/09/15 00:00:44;;;;;;;26.50;20.30;;;;;;;;;;733132;189;919040;-72
2021/09/15 00:03:10;;;;;;;30.47;20.93;;;;;;;;;;732392;189;918717;-73
2021/09/15 00:05:35;;;;;;;28.47;21.07;;;;;;;;;;739657;189;917416;-73
2021/09/15 00:08:01;;;;;;;29.93;21.67;;;;;;;;;;736238;189;919614;-73
2021/09/15 00:10:27;;;;;;;26.70;20.73;;;;;;;;;;733734;189;919008;-72
2021/09/15 00:12:53;;;;;;;28.90;20.20;;;;;;;;;;735557;190;1122392;-73
2021/09/15 00:15:19;;;;;;;24.23;19.00;;;;;;;;;;733850;189;918842;-72
2021/09/15 00:17:45;;;;;;;25.30;18.20;;;;;;;;;;734598;189;947348;-72
2021/09/15 00:20:11;;;;;;;25.10;19.50;;;;;;;;;;733585;189;919255;-72
2021/09/15 00:22:37;;;;;;;25.80;18.90;;;;;;;;;;738762;189;919183;-73
2021/09/15 00:25:03;;;;;;;27.40;19.97;;;;;;;;;;730132;189;919085;-72
2021/09/15 00:27:29;;;;;;;27.87;19.50;;;;;;;;;;732276;189;919217;-72
2021/09/15 00:29:55;;;;;;;29.40;19.20;;;;;;;;;;738750;189;918889;-72
2021/09/15 00:32:20;;;;;;;28.90;18.90;;;;;;;;;;733858;189;918564;-72
2021/09/15 00:34:46;;;;;;;24.10;19.60;;;;;;;;;;735697;189;919164;-72
2021/09/15 00:37:12;;;;;;;25.20;17.37;;;;;;;;;;736094;189;918420;-72
2021/09/15 00:39:38;;;;;;;23.57;17.93;;;;;;;;;;733767;189;919316;-71
2021/09/15 00:42:04;;;;;;;25.40;18.53;;;;;;;;;;735130;189;918804;-72
2021/09/15 00:44:30;;;;;;;29.17;17.97;;;;;;;;;;734591;189;920032;-71
2021/09/15 00:46:55;;;;;;;25.85;19.73;;;;;;;;;;731893;189;919431;-72
2021/09/15 00:49:21;;;;;;;25.90;19.57;;;;;;;;;;733534;189;920003;-72
2021/09/15 00:51:47;;;;;;;26.00;20.40;;;;;;;;;;735289;189;918097;-70
2021/09/15 00:54:15;;;;;;;26.57;17.97;;;;;;;;;;737705;189;918704;-71
2021/09/15 00:56:39;;;;;;;26.43;20.37;;;;;;;;;;734404;189;918940;-71
2021/09/15 00:59:05;;;;;;;27.80;20.08;;;;;;;;;;735612;187;919388;-71
2021/09/15 01:01:31;;;;;;;26.80;20.47;;;;;;;;;;739657;189;918706;-71
2021/09/15 01:03:56;;;;;;;26.57;20.07;;;;;;;;;;734419;189;918732;-72
2021/09/15 01:06:22;;;;;;;30.80;20.63;;;;;;;;;;733380;189;919528;-70
2021/09/15 01:08:49;;;;;;;31.60;21.27;;;;;;;;;;734059;189;918266;-70
2021/09/15 01:11:15;;;;;;;25.13;20.47;;;;;;;;;;727634;190;918430;-72
2021/09/15 01:13:41;;;;;;;34.63;21.30;;;;;;;;;;735102;189;918286;-72
2021/09/15 01:16:07;;;;;;;29.83;21.10;;;;;;;;;;734852;189;923250;-71
2021/09/15 01:18:33;;;;;;;31.50;22.00;;;;;;;;;;737177;189;919017;-71
2021/09/15 01:20:59;;;;;;;30.00;20.60;;;;;;;;;;733047;189;919093;-71
2021/09/15 01:23:25;;;;;;;29.27;21.33;;;;;;;;;;731152;189;1024339;-72
2021/09/15 01:25:51;;;;;;;26.67;19.33;;;;;;;;;;738193;189;958631;-71
2021/09/15 01:28:17;;;;;;;30.55;21.65;;;;;;;;;;735106;189;919256;-73
2021/09/15 01:30:42;;;;;;;23.23;18.43;;;;;;;;;;735291;189;920334;-71
2021/09/15 01:33:12;;;;;;;25.00;19.35;;;;;;;;;;738345;189;919204;-71
2021/09/15 01:35:38;;;;;;;25.33;20.00;;;;;;;;;;734734;186;919149;-71
2021/09/15 01:38:04;;;;;;;26.57;20.00;;;;;;;;;;734415;189;919259;-72
2021/09/15 01:40:29;;;;;;;24.53;19.03;;;;;;;;;;733741;189;918932;-72
2021/09/15 01:42:55;;;;;;;27.20;19.83;;;;;;;;;;738272;189;918147;-71
2021/09/15 01:45:21;;;;;;;24.30;17.80;;;;;;;;;;734811;189;918566;-72
2021/09/15 01:47:47;;;;;;;20.73;16.73;;;;;;;;;;732735;189;919149;-73
2021/09/15 01:50:13;;;;;;;18.00;14.17;;;;;;;;;;739124;189;917063;-73
2021/09/15 01:52:39;;;;;;;21.97;14.67;;;;;;;;;;735742;189;919011;-72
2021/09/15 01:55:05;;;;;;;21.77;15.50;;;;;;;;;;736470;189;918727;-72
2021/09/15 01:57:30;;;;;;;23.07;16.80;;;;;;;;;;732933;189;917863;-71
2021/09/15 01:59:57;;;;;;;22.17;17.30;;;;;;;;;;730251;192;928840;-71
2021/09/15 02:02:22;;;;;;;20.40;15.87;;;;;;;;;;733979;189;920466;-71
2021/09/15 02:04:48;;;;;;;26.80;17.27;;;;;;;;;;734131;189;918632;-71
2021/09/15 02:07:14;;;;;;;25.07;16.63;;;;;;;;;;739537;189;918891;-71
2021/09/15 02:09:40;;;;;;;22.67;17.63;;;;;;;;;;735288;188;917729;-71
2021/09/15 02:12:05;;;;;;;25.12;19.40;;;;;;;;;;735477;189;918914;-71
2021/09/15 02:14:31;;;;;;;31.23;21.93;;;;;;;;;;740451;189;919741;-72
2021/09/15 02:16:57;;;;;;;24.73;17.80;;;;;;;;;;734849;189;918598;-72
2021/09/15 02:19:23;;;;;;;28.10;18.43;;;;;;;;;;733535;189;918260;-72
2021/09/15 02:21:50;;;;;;;25.70;17.17;;;;;;;;;;737761;189;921062;-71
2021/09/15 02:24:17;;;;;;;25.03;18.77;;;;;;;;;;737461;186;919965;-71
2021/09/15 02:26:41;;;;;;;39.90;24.20;;;;;;;;;;735239;189;817757;-72
2021/09/15 02:29:07;;;;;;;22.75;17.77;;;;;;;;;;735561;189;920076;-72
2021/09/15 02:31:33;;;;;;;29.33;18.50;;;;;;;;;;739520;189;918436;-72
2021/09/15 02:33:59;;;;;;;21.73;15.50;;;;;;;;;;734508;189;926439;-71
2021/09/15 02:36:25;;;;;;;17.27;14.10;;;;;;;;;;734734;189;920251;-71
2021/09/15 02:38:50;;;;;;;27.17;16.77;;;;;;;;;;737815;189;920821;-72
2021/09/15 02:41:16;;;;;;;26.58;16.58;;;;;;;;;;735038;189;918422;-72
2021/09/15 02:43:42;;;;;;;14.73;12.70;;;;;;;;;;735647;189;917308;-72
2021/09/15 02:46:08;;;;;;;17.37;14.97;;;;;;;;;;739222;189;915392;-71
2021/09/15 02:48:34;;;;;;;20.70;15.07;;;;;;;;;;734688;189;918374;-72
2021/09/15 02:51:00;;;;;;;16.23;13.37;;;;;;;;;;731933;189;918276;-71
2021/09/15 02:53:25;;;;;;;24.13;16.60;;;;;;;;;;733903;189;919027;-71
2021/09/15 02:55:51;;;;;;;19.67;15.00;;;;;;;;;;739180;189;961802;-72
2021/09/15 02:58:17;;;;;;;21.90;15.50;;;;;;;;;;733441;189;919568;-72
2021/09/15 03:00:43;;;;;;;27.60;18.60;;;;;;;;;;730787;190;917984;-72
2021/09/15 03:03:09;;;;;;;34.07;22.97;;;;;;;;;;737585;190;919262;-70
2021/09/15 03:05:35;;;;;;;35.17;21.17;;;;;;;;;;735506;189;918168;-73
2021/09/15 03:08:00;;;;;;;31.83;19.93;;;;;;;;;;734486;189;919703;-72
2021/09/15 03:10:26;;;;;;;21.10;16.50;;;;;;;;;;737602;189;1019758;-72
2021/09/15 03:12:52;;;;;;;25.20;17.10;;;;;;;;;;734837;189;932041;-72
2021/09/15 03:15:18;;;;;;;24.73;18.80;;;;;;;;;;736770;189;936374;-72
2021/09/15 03:17:44;;;;;;;17.97;15.40;;;;;;;;;;734266;189;920773;-72
2021/09/15 03:20:10;;;;;;;20.63;15.57;;;;;;;;;;727022;190;919907;-73
2021/09/15 03:22:36;;;;;;;20.30;15.97;;;;;;;;;;735131;187;919618;-72
2021/09/15 03:25:02;;;;;;;16.93;15.10;;;;;;;;;;734102;189;918311;-73
2021/09/15 03:27:28;;;;;;;23.00;16.50;;;;;;;;;;740384;189;920611;-72
2021/09/15 03:29:54;;;;;;;23.57;17.00;;;;;;;;;;736235;189;918235;-72
2021/09/15 03:32:20;;;;;;;21.67;16.97;;;;;;;;;;733089;189;914771;-71
2021/09/15 03:34:46;;;;;;;29.73;21.10;;;;;;;;;;739653;189;915913;-71
2021/09/15 03:37:11;;;;;;;34.77;21.37;;;;;;;;;;735030;189;916954;-71
2021/09/15 03:39:37;;;;;;;32.10;20.80;;;;;;;;;;732966;190;917665;-71
2021/09/15 03:42:04;;;;;;;31.40;21.25;;;;;;;;;;734359;189;1014718;-69
2021/09/15 03:44:29;;;;;;;30.33;20.77;;;;;;;;;;735074;186;920536;-70
2021/09/15 03:46:55;;;;;;;36.67;23.80;;;;;;;;;;732240;189;938763;-71
2021/09/15 03:49:21;;;;;;;30.63;23.57;;;;;;;;;;732862;189;918113;-71
2021/09/15 03:51:48;;;;;;;31.63;22.27;;;;;;;;;;737135;189;918515;-72
2021/09/15 03:54:13;;;;;;;31.90;23.00;;;;;;;;;;735468;189;918722;-72
2021/09/15 03:56:39;;;;;;;33.57;22.80;;;;;;;;;;729078;190;918109;-71
2021/09/15 03:59:04;;;;;;;28.17;20.30;;;;;;;;;;738194;189;918383;-70
2021/09/15 04:01:30;;;;;;;29.70;21.90;;;;;;;;;;734142;189;949791;-71
2021/09/15 04:03:56;;;;;;;33.17;22.00;;;;;;;;;;735751;189;920206;-71
2021/09/15 04:06:22;;;;;;;31.23;23.50;;;;;;;;;;740573;189;919297;-70
2021/09/15 04:08:48;;;;;;;34.50;24.05;;;;;;;;;;731351;189;920797;-71
2021/09/15 04:11:14;;;;;;;41.43;23.20;;;;;;;;;;728434;189;919776;-70
2021/09/15 04:13:40;;;;;;;31.67;21.40;;;;;;;;;;734267;189;921640;-70
2021/09/15 04:16:06;;;;;;;34.43;22.67;;;;;;;;;;735626;189;916536;-71
2021/09/15 04:18:32;;;;;;;32.80;22.03;;;;;;;;;;733326;189;1120416;-72
2021/09/15 04:20:57;;;;;;;32.47;21.30;;;;;;;;;;738665;189;624057;-70
2021/09/15 04:23:29;;;;;;;32.23;22.93;;;;;;;;;;740701;189;611134;-70
2021/09/15 04:33:25;;;;;;;44.17;24.43;;;;;;;;;;738417;189;920085;-70
2021/09/15 04:35:51;;;;;;;35.70;21.95;;;;;;;;;;732686;189;916071;-70
2021/09/15 04:38:17;;;;;;;41.97;23.60;;;;;;;;;;736207;189;919386;-70
2021/09/15 04:40:42;;;;;;;34.93;25.63;;;;;;;;;;734639;189;908453;-70
2021/09/15 04:43:08;;;;;;;33.27;23.70;;;;;;;;;;740174;189;918681;-70
2021/09/15 04:45:34;;;;;;;37.97;24.67;;;;;;;;;;739202;189;912699;-70
2021/09/15 04:48:00;;;;;;;32.47;23.70;;;;;;;;;;737593;189;621628;-72
2021/09/15 04:50:26;;;;;;;37.57;24.50;;;;;;;;;;742875;189;610057;-71
2021/09/15 04:52:52;;;;;;;34.07;23.60;;;;;;;;;;736871;189;915446;-70
2021/09/15 04:55:17;;;;;;;38.78;25.90;;;;;;;;;;733240;189;917513;-70
2021/09/15 04:57:43;;;;;;;37.87;25.30;;;;;;;;;;736228;189;917404;-69
2021/09/15 05:00:10;;;;;;;35.77;24.47;;;;;;;;;;734758;189;920049;-69
2021/09/15 05:02:36;;;;;;;34.40;25.00;;;;;;;;;;731831;189;918836;-70
2021/09/15 05:05:01;;;;;;;36.63;26.05;;;;;;;;;;732989;189;1019909;-69
2021/09/15 05:07:27;;;;;;;41.17;28.50;;;;;;;;;;734588;186;918305;-69
2021/09/15 05:09:53;;;;;;;41.50;26.87;;;;;;;;;;728358;190;919920;-69
2021/09/15 05:12:19;;;;;;;40.92;26.73;;;;;;;;;;733832;189;918239;-69
2021/09/15 05:14:45;;;;;;;39.50;25.90;;;;;;;;;;739173;189;918976;-69
2021/09/15 05:17:11;;;;;;;39.10;26.43;;;;;;;;;;735613;189;915367;-70
2021/09/15 05:19:36;;;;;;;47.80;28.43;;;;;;;;;;734960;189;914023;-69
2021/09/15 05:22:02;;;;;;;45.07;28.00;;;;;;;;;;739643;189;912838;-69
2021/09/15 05:24:28;;;;;;;43.70;25.77;;;;;;;;;;733475;189;914848;-69
2021/09/15 05:26:54;;;;;;;40.00;25.53;;;;;;;;;;732383;190;916069;-70
2021/09/15 05:29:20;;;;;;;78.00;29.83;;;;;;;;;;736136;189;915299;-69
2021/09/15 05:31:46;;;;;;;208.60;47.43;;;;;;;;;;734226;186;948090;-69
2021/09/15 05:34:12;;;;;;;219.93;47.03;;;;;;;;;;734684;189;919143;-70
2021/09/15 05:36:38;;;;;;;48.20;28.67;;;;;;;;;;732946;189;919499;-70
2021/09/15 05:39:03;;;;;;;43.50;25.90;;;;;;;;;;736906;190;914843;-69
2021/09/15 05:41:29;;;;;;;61.17;28.67;;;;;;;;;;735438;189;918205;-69
2021/09/15 05:43:55;;;;;;;87.83;32.10;;;;;;;;;;733892;188;918716;-69
2021/09/15 05:46:21;;;;;;;34.53;25.53;;;;;;;;;;740853;188;919209;-69
2021/09/15 05:48:47;;;;;;;32.87;25.90;;;;;;;;;;736396;189;919779;-70
2021/09/15 05:51:13;;;;;;;38.13;25.90;;;;;;;;;;735078;189;920103;-70
2021/09/15 05:53:38;;;;;;;47.10;27.67;;;;;;;;;;740136;189;936461;-72
2021/09/15 05:56:04;;;;;;;35.60;25.40;;;;;;;;;;736081;189;933435;-70
2021/09/15 05:58:30;;;;;;;36.80;27.53;;;;;;;;;;734950;189;919227;-71
2021/09/15 06:00:57;;;;;;;35.57;23.30;;;;;;;;;;732823;189;918657;-71
2021/09/15 06:03:23;;;;;;;38.83;25.30;;;;;;;;;;741063;189;918836;-71
2021/09/15 06:05:49;;;;;;;32.10;24.20;;;;;;;;;;735112;189;917742;-71
2021/09/15 06:08:16;;;;;;;32.40;24.33;;;;;;;;;;733817;189;918925;-72
2021/09/15 06:10:41;;;;;;;29.33;22.53;;;;;;;;;;739157;189;860766;-72
2021/09/15 06:13:06;;;;;;;28.43;21.70;;;;;;;;;;735006;189;918307;-71
2021/09/15 06:15:32;;;;;;;30.60;21.60;;;;;;;;;;734292;189;917154;-73
2021/09/15 06:17:58;;;;;;;27.50;19.80;;;;;;;;;;738149;189;917865;-71
2021/09/15 06:20:24;;;;;;;25.90;21.67;;;;;;;;;;730052;189;919063;-72
2021/09/15 06:22:50;;;;;;;25.08;19.08;;;;;;;;;;733868;189;919237;-71
2021/09/15 06:25:16;;;;;;;25.10;17.83;;;;;;;;;;733204;189;918334;-72
2021/09/15 06:27:42;;;;;;;22.83;18.53;;;;;;;;;;740879;189;959324;-72
2021/09/15 06:30:08;;;;;;;23.60;17.83;;;;;;;;;;734262;189;918156;-72
2021/09/15 06:32:34;;;;;;;22.87;16.83;;;;;;;;;;734067;189;917979;-73
2021/09/15 06:35:00;;;;;;;23.53;16.23;;;;;;;;;;737327;189;941515;-72
2021/09/15 06:37:26;;;;;;;24.30;17.17;;;;;;;;;;731773;189;918361;-73
2021/09/15 06:39:51;;;;;;;19.00;15.83;;;;;;;;;;731905;189;919091;-74
2021/09/15 06:42:18;;;;;;;20.10;16.73;;;;;;;;;;736072;190;919055;-73
2021/09/15 06:44:43;;;;;;;18.08;14.27;;;;;;;;;;736330;189;917822;-73
2021/09/15 06:47:09;;;;;;;19.00;15.50;;;;;;;;;;734278;189;919048;-73
2021/09/15 06:49:35;;;;;;;20.67;17.20;;;;;;;;;;731785;190;919217;-74
2021/09/15 06:52:01;;;;;;;23.93;17.23;;;;;;;;;;734592;186;918371;-73
2021/09/15 06:54:27;;;;;;;19.90;16.83;;;;;;;;;;733332;189;941530;-75
2021/09/15 06:56:52;;;;;;;20.67;15.87;;;;;;;;;;737038;188;918470;-73
2021/09/15 06:59:18;;;;;;;22.20;15.53;;;;;;;;;;740153;189;918616;-75
2021/09/15 07:01:44;;;;;;;21.10;16.13;;;;;;;;;;735780;189;918032;-76
2021/09/15 07:04:10;;;;;;;22.53;16.80;;;;;;;;;;737590;189;918935;-77
2021/09/15 07:06:36;;;;;;;20.60;15.43;;;;;;;;;;740897;189;622682;-76
2021/09/15 07:09:02;;;;;;;17.90;13.80;;;;;;;;;;737203;189;633038;-75
2021/09/15 07:11:28;;;;;;;22.10;15.53;;;;;;;;;;738689;189;637765;-74
2021/09/15 07:13:54;;;;;;;19.60;15.37;;;;;;;;;;739379;189;675383;-76
2021/09/15 07:16:20;;;;;;;18.97;15.37;;;;;;;;;;738240;186;628509;-74
2021/09/15 07:18:46;;;;;;;21.37;15.90;;;;;;;;;;727546;193;918390;-74
2021/09/15 07:21:13;;;;;;;17.93;15.10;;;;;;;;;;728224;193;816772;-75
2021/09/15 07:23:38;;;;;;;20.70;14.87;;;;;;;;;;737759;190;918377;-79
2021/09/15 07:26:03;;;;;;;18.43;15.17;;;;;;;;;;734935;189;914836;-77
2021/09/15 07:28:29;;;;;;;17.10;13.83;;;;;;;;;;735033;189;919431;-77
2021/09/15 07:30:55;;;;;;;17.73;14.03;;;;;;;;;;739600;189;816170;-77
2021/09/15 07:33:21;;;;;;;21.20;15.33;;;;;;;;;;736075;189;919460;-77
2021/09/15 07:35:47;;;;;;;18.33;14.27;;;;;;;;;;736102;189;918754;-76
2021/09/15 07:38:13;;;;;;;21.30;16.08;;;;;;;;;;738127;189;919025;-75
2021/09/15 07:40:38;;;;;;;18.53;13.70;;;;;;;;;;734954;189;916925;-79
2021/09/15 07:43:04;;;;;;;18.00;14.40;;;;;;;;;;733659;189;918952;-78
2021/09/15 07:45:30;;;;;;;17.37;14.30;;;;;;;;;;732671;189;816323;-77
2021/09/15 07:47:56;;;;;;;18.93;12.93;;;;;;;;;;737501;189;917635;-77
2021/09/15 07:50:22;;;;;;;17.03;13.93;;;;;;;;;;735568;189;816109;-78
2021/09/15 07:52:48;;;;;;;17.10;13.30;;;;;;;;;;736063;189;810582;-79
2021/09/15 07:55:14;;;;;;;18.13;15.03;;;;;;;;;;738438;189;816599;-77
2021/09/15 07:57:40;;;;;;;16.77;14.33;;;;;;;;;;736031;189;918055;-79
2021/09/15 08:00:06;;;;;;;20.73;14.67;;;;;;;;;;735900;189;918835;-79
2021/09/15 08:02:32;;;;;;;22.10;14.77;;;;;;;;;;740908;189;919457;-78
2021/09/15 08:04:58;;;;;;;17.87;13.20;;;;;;;;;;736444;189;944869;-78
2021/09/15 08:07:24;;;;;;;14.30;12.60;;;;;;;;;;734435;188;918184;-77
2021/09/15 08:09:50;;;;;;;14.03;12.53;;;;;;;;;;737391;189;919750;-78
2021/09/15 08:12:16;;;;;;;16.67;12.43;;;;;;;;;;739103;189;915952;-80
2021/09/15 08:14:42;;;;;;;15.33;13.17;;;;;;;;;;734541;188;918155;-78
2021/09/15 08:17:07;;;;;;;18.37;12.13;;;;;;;;;;730942;189;918314;-78
2021/09/15 08:19:33;;;;;;;15.37;12.50;;;;;;;;;;738160;189;913944;-77
2021/09/15 08:21:59;;;;;;;15.85;13.27;;;;;;;;;;735874;189;915037;-76
2021/09/15 08:24:25;;;;;;;19.47;12.90;;;;;;;;;;736097;189;920776;-77
2021/09/15 08:26:51;;;;;;;13.43;11.43;;;;;;;;;;740411;189;628490;-78
2021/09/15 08:29:17;;;;;;;13.40;10.65;;;;;;;;;;737254;189;660789;-80
2021/09/15 08:31:43;;;;;;;14.83;11.43;;;;;;;;;;736487;189;788495;-77
2021/09/15 08:34:08;;;;;;;16.40;11.87;;;;;;;;;;734849;190;920213;-79
2021/09/15 08:36:34;;;;;;;12.37;11.07;;;;;;;;;;734240;187;917411;-79
2021/09/15 08:39:00;;;;;;;14.27;10.97;;;;;;;;;;735257;189;919063;-77
2021/09/15 08:41:26;;;;;;;19.87;10.70;;;;;;;;;;730468;189;917957;-77
2021/09/15 08:43:52;;;;;;;13.93;10.30;;;;;;;;;;741128;189;812742;-80
2021/09/15 08:46:19;;;;;;;15.53;11.50;;;;;;;;;;735461;189;915593;-78
2021/09/15 08:48:43;;;;;;;17.30;9.53;;;;;;;;;;736348;189;914382;-79
2021/09/15 08:51:11;;;;;;;18.73;11.60;;;;;;;;;;737510;189;914778;-78
2021/09/15 08:53:35;;;;;;;13.23;10.27;;;;;;;;;;734557;189;915040;-78
2021/09/15 08:56:01;;;;;;;12.17;9.37;;;;;;;;;;736027;189;914930;-78
2021/09/15 08:58:27;;;;;;;17.17;10.23;;;;;;;;;;732681;190;915396;-77
2021/09/15 09:00:53;;;;;;;11.17;9.83;;;;;;;;;;726546;189;824913;-78
2021/09/15 09:03:19;;;;;;;25.87;10.67;;;;;;;;;;723509;193;919688;-78
2021/09/15 09:05:44;;;;;;;11.30;9.93;;;;;;;;;;734243;190;815822;-77
2021/09/15 09:08:16;;;;;;;13.53;9.73;;;;;;;;;;739121;189;915228;-77
2021/09/15 09:10:42;;;;;;;13.43;9.40;;;;;;;;;;733477;189;919037;-78
2021/09/15 09:13:08;;;;;;;13.13;10.97;;;;;;;;;;731610;189;918787;-78
2021/09/15 09:15:35;;;;;;;13.77;10.60;;;;;;;;;;737613;189;918319;-76
2021/09/15 09:18:02;;;;;;;14.50;9.40;;;;;;;;;;735095;186;915313;-78
2021/09/15 09:20:30;;;;;;;11.33;8.77;;;;;;;;;;734367;189;916276;-79
2021/09/15 09:22:58;;;;;;;13.00;8.90;;;;;;;;;;733285;189;918679;-78
2021/09/15 09:25:24;;;;;;;13.30;9.03;;;;;;;;;;739192;189;909566;-79
2021/09/15 09:27:50;;;;;;;11.57;8.67;;;;;;;;;;736686;189;918807;-78
2021/09/15 09:30:21;;;;;;;8.63;7.73;;;;;;;;;;735152;189;919675;-77
2021/09/15 09:32:48;;;;;;;9.38;8.35;;;;;;;;;;736234;189;918659;-78
2021/09/15 09:35:13;;;;;;;11.43;9.67;;;;;;;;;;738239;189;1547428;-78
2021/09/15 09:37:39;;;;;;;10.73;8.40;;;;;;;;;;735170;189;816804;-78
2021/09/15 09:40:05;;;;;;;14.13;8.32;;;;;;;;;;731916;190;949509;-78
2021/09/15 09:42:32;;;;;;;10.27;8.20;;;;;;;;;;739788;189;816870;-76
2021/09/15 09:45:02;;;;;;;10.00;8.00;;;;;;;;;;734862;189;917327;-79
2021/09/15 09:47:28;;;;;;;9.50;8.43;;;;;;;;;;737466;189;918697;-78
2021/09/15 09:49:59;;;;;;;11.47;8.60;;;;;;;;;;734218;189;918011;-78
2021/09/15 09:52:25;;;;;;;13.17;9.10;;;;;;;;;;738396;189;953244;-78
2021/09/15 09:54:56;;;;;;;14.77;8.37;;;;;;;;;;734583;190;918794;-76
2021/09/15 09:57:22;;;;;;;11.00;9.33;;;;;;;;;;733958;189;920461;-76
2021/09/15 09:59:48;;;;;;;8.90;7.93;;;;;;;;;;735282;189;918906;-79
2021/09/15 10:02:14;;;;;;;9.53;7.90;;;;;;;;;;740537;189;813720;-79
2021/09/15 10:04:39;;;;;;;10.43;8.23;;;;;;;;;;733290;190;918769;-78
2021/09/15 10:07:05;;;;;;;10.10;8.23;;;;;;;;;;732419;189;921004;-78
2021/09/15 10:09:31;;;;;;;9.77;8.77;;;;;;;;;;738067;189;920381;-78
2021/09/15 10:11:57;;;;;;;9.37;7.63;;;;;;;;;;733042;189;918766;-78
2021/09/15 10:14:23;;;;;;;10.80;8.70;;;;;;;;;;734669;189;908369;-78
2021/09/15 10:16:50;;;;;;;14.77;9.70;;;;;;;;;;738690;189;918594;-75
2021/09/15 10:19:16;;;;;;;12.43;8.40;;;;;;;;;;729486;192;918134;-76
2021/09/15 10:21:42;;;;;;;9.80;8.10;;;;;;;;;;731304;189;918462;-79
2021/09/15 10:24:08;;;;;;;9.65;8.50;;;;;;;;;;733479;189;919155;-79
2021/09/15 10:26:36;;;;;;;12.90;8.97;;;;;;;;;;737343;189;815800;-79
2021/09/15 10:29:07;;;;;;;11.90;8.97;;;;;;;;;;736065;189;917835;-78
2021/09/15 10:31:39;;;;;;;10.40;9.10;;;;;;;;;;731932;189;921488;-79
2021/09/15 10:34:05;;;;;;;11.30;8.70;;;;;;;;;;736459;189;818506;-77
2021/09/15 10:36:32;;;;;;;10.57;8.40;;;;;;;;;;742264;189;897238;-78
2021/09/15 10:38:58;;;;;;;15.63;9.80;;;;;;;;;;735682;189;918467;-77
2021/09/15 10:41:40;;;;;;;11.40;8.27;;;;;;;;;;761504;175;919006;-76
2021/09/15 10:44:08;;;;;;;9.38;8.05;;;;;;;;;;770107;180;917414;-79
2021/09/15 10:46:33;;;;;;;8.63;7.70;;;;;;;;;;772117;180;914765;-79
2021/09/15 10:49:05;;;;;;;13.50;8.80;;;;;;;;;;772644;180;814412;-78
2021/09/15 10:51:31;;;;;;;10.50;8.90;;;;;;;;;;761423;181;917227;-77
2021/09/15 10:53:57;;;;;;;9.40;8.37;;;;;;;;;;767501;181;918414;-77
2021/09/15 10:56:28;;;;;;;9.73;8.73;;;;;;;;;;769872;180;821495;-77
2021/09/15 10:58:54;;;;;;;11.57;9.13;;;;;;;;;;763773;180;917897;-77
2021/09/15 11:01:20;;;;;;;10.73;8.63;;;;;;;;;;768442;181;894991;-78
2021/09/15 11:03:51;;;;;;;9.80;7.60;;;;;;;;;;757597;181;918611;-77
2021/09/15 11:06:20;;;;;;;10.20;8.50;;;;;;;;;;773069;178;912032;-77
2021/09/15 11:08:47;;;;;;;10.63;9.17;;;;;;;;;;766617;181;915644;-79
2021/09/15 11:11:12;;;;;;;78.67;45.50;;;;;;;;;;760353;181;908295;-78
2021/09/15 11:13:46;;;;;;;13.23;9.70;;;;;;;;;;769437;180;815510;-78
2021/09/15 11:16:18;;;;;;;10.30;9.20;;;;;;;;;;766933;181;914155;-79
2021/09/15 11:18:43;;;;;;;10.63;9.23;;;;;;;;;;760721;180;914717;-79
2021/09/15 11:21:11;;;;;;;13.30;9.67;;;;;;;;;;761770;180;914399;-77
2021/09/15 11:23:35;;;;;;;9.70;8.70;;;;;;;;;;761177;180;914401;-78
2021/09/15 11:26:03;;;;;;;14.60;12.27;;;;;;;;;;767282;178;922239;-77
2021/09/15 11:28:27;;;;;;;11.40;8.60;;;;;;;;;;757589;181;813048;-78
2021/09/15 11:31:01;;;;;;;13.43;8.23;;;;;;;;;;762185;181;811091;-76
2021/09/15 11:33:27;;;;;;;9.60;7.90;;;;;;;;;;770068;180;766423;-78
2021/09/15 11:35:54;;;;;;;9.17;8.10;;;;;;;;;;760980;179;911290;-80
2021/09/15 11:38:35;;;;;;;8.23;7.30;;;;;;;;;;761337;180;816217;-78
2021/09/15 11:41:06;;;;;;;12.90;8.30;;;;;;;;;;764083;180;812892;-78
2021/09/15 11:43:31;;;;;;;12.00;8.47;;;;;;;;;;766067;180;830930;-77
2021/09/15 11:45:57;;;;;;;10.77;8.53;;;;;;;;;;767680;180;914460;-78
2021/09/15 11:48:26;;;;;;;10.90;9.00;;;;;;;;;;765376;180;915511;-79
2021/09/15 11:50:52;;;;;;;12.23;8.70;;;;;;;;;;769704;180;711321;-78
2021/09/15 11:53:18;;;;;;;9.87;8.57;;;;;;;;;;771902;180;812024;-78
2021/09/15 11:55:50;;;;;;;10.37;8.53;;;;;;;;;;764561;180;805744;-78
2021/09/15 11:58:13;;;;;;;9.10;8.20;;;;;;;;;;764544;181;803806;-80
2021/09/15 12:00:40;;;;;;;11.30;8.43;;;;;;;;;;765786;180;912450;-80
2021/09/15 12:03:06;;;;;;;12.40;9.00;;;;;;;;;;769305;180;833801;-79
2021/09/15 12:05:32;;;;;;;12.13;8.60;;;;;;;;;;765121;180;897773;-78
2021/09/15 12:07:57;;;;;;;12.88;8.35;;;;;;;;;;762372;180;902156;-79
2021/09/15 12:10:23;;;;;;;12.60;8.87;;;;;;;;;;771142;180;812330;-80
2021/09/15 12:12:50;;;;;;;10.97;8.10;;;;;;;;;;765640;180;937416;-78
2021/09/15 12:15:15;;;;;;;11.95;8.40;;;;;;;;;;765796;180;871973;-79
2021/09/15 12:17:41;;;;;;;16.00;9.10;;;;;;;;;;762752;180;916898;-76
2021/09/15 12:20:07;;;;;;;13.67;8.30;;;;;;;;;;764796;180;922054;-79
2021/09/15 12:22:33;;;;;;;9.17;6.80;;;;;;;;;;766069;181;918335;-78
2021/09/15 12:24:59;;;;;;;8.17;5.93;;;;;;;;;;765709;180;918690;-81
2021/09/15 12:27:25;;;;;;;17.47;10.40;;;;;;;;;;770996;181;660592;-78
2021/09/15 12:29:57;;;;;;;11.50;9.70;;;;;;;;;;766113;180;918803;-79
2021/09/15 12:32:28;;;;;;;141.80;79.60;;;;;;;;;;762680;180;763695;-79
2021/09/15 12:34:54;;;;;;;28.73;18.60;;;;;;;;;;765513;181;918900;-78
2021/09/15 12:37:19;;;;;;;8.17;7.27;;;;;;;;;;773542;180;713131;-77
2021/09/15 12:39:50;;;;;;;18.23;10.50;;;;;;;;;;762709;180;922438;-78
2021/09/15 12:42:16;;;;;;;7.57;6.77;;;;;;;;;;762711;180;917582;-78
2021/09/15 12:44:42;;;;;;;10.40;6.57;;;;;;;;;;771562;181;917066;-77
2021/09/15 12:47:08;;;;;;;7.87;6.77;;;;;;;;;;766568;180;919604;-78
2021/09/15 12:49:33;;;;;;;7.73;6.17;;;;;;;;;;768387;181;816127;-78
2021/09/15 12:52:03;;;;;;;8.57;7.67;;;;;;;;;;764066;180;846491;-80
2021/09/15 12:54:29;;;;;;;12.30;8.23;;;;;;;;;;765699;181;897924;-80
2021/09/15 12:56:55;;;;;;;9.80;7.17;;;;;;;;;;764919;180;918938;-79
2021/09/15 12:59:26;;;;;;;11.50;7.17;;;;;;;;;;761452;181;918407;-79
2021/09/15 13:01:52;;;;;;;7.28;6.57;;;;;;;;;;760813;180;927177;-78
2021/09/15 13:04:18;;;;;;;9.17;7.20;;;;;;;;;;759763;183;688502;-79
2021/09/15 13:06:44;;;;;;;8.33;6.90;;;;;;;;;;767910;180;814598;-79
2021/09/15 13:09:10;;;;;;;11.60;7.30;;;;;;;;;;766032;181;1083109;-81
2021/09/15 13:11:36;;;;;;;8.43;6.83;;;;;;;;;;770257;181;815735;-80
2021/09/15 13:14:01;;;;;;;15.30;7.43;;;;;;;;;;765816;180;915029;-80
2021/09/15 13:16:28;;;;;;;8.80;7.23;;;;;;;;;;760981;180;918966;-82
2021/09/15 13:18:54;;;;;;;11.53;7.67;;;;;;;;;;771659;180;919267;-82
2021/09/15 13:21:20;;;;;;;8.37;7.10;;;;;;;;;;759367;180;917966;-82
2021/09/15 13:23:46;;;;;;;8.77;7.67;;;;;;;;;;764904;180;915709;-79
2021/09/15 13:26:13;;;;;;;9.70;7.50;;;;;;;;;;764597;180;846533;-81
2021/09/15 13:28:38;;;;;;;15.50;8.27;;;;;;;;;;771093;181;714826;-81
2021/09/15 13:31:03;;;;;;;11.37;7.50;;;;;;;;;;760026;181;860778;-84
2021/09/15 13:33:29;;;;;;;16.60;7.03;;;;;;;;;;762219;180;918781;-84
2021/09/15 13:35:55;;;;;;;10.97;7.53;;;;;;;;;;774060;180;784455;-76
2021/09/15 13:38:21;;;;;;;10.50;7.70;;;;;;;;;;768442;180;895811;-88
2021/09/15 13:40:47;;;;;;;8.60;7.70;;;;;;;;;;766668;180;918226;-79
2021/09/15 13:43:13;;;;;;;12.87;7.80;;;;;;;;;;766021;181;918661;-82
2021/09/15 13:45:38;;;;;;;9.07;7.20;;;;;;;;;;770356;180;751930;-81
2021/09/15 13:48:05;;;;;;;8.30;7.33;;;;;;;;;;759966;180;1224744;-82
2021/09/15 13:50:30;;;;;;;9.40;7.57;;;;;;;;;;771893;181;808025;-80
2021/09/15 13:52:56;;;;;;;10.47;8.17;;;;;;;;;;767553;181;815945;-82
2021/09/15 13:55:22;;;;;;;11.13;8.43;;;;;;;;;;763374;180;918178;-81
2021/09/15 13:57:48;;;;;;;11.35;7.85;;;;;;;;;;761809;181;913642;-81
2021/09/15 14:00:14;;;;;;;11.20;8.60;;;;;;;;;;771261;180;885640;-81
2021/09/15 14:02:40;;;;;;;13.63;8.27;;;;;;;;;;767303;180;919447;-81
2021/09/15 14:05:07;;;;;;;9.13;7.65;;;;;;;;;;761328;180;917464;-77
2021/09/15 14:07:32;;;;;;;11.13;8.40;;;;;;;;;;771351;180;833888;-78
2021/09/15 14:09:58;;;;;;;10.80;7.23;;;;;;;;;;763205;180;824787;-82